OISL  Lar  Airport

Lar, Iran

Add Bookmark
ICAO OISL
IATA LRR
Type Airport
Status Operational
Latitude
27° 40' 28" N
27.674700
Longitude
54° 22' 59" E
54.383301
Local (DST + 5) UTC (GMT + 4)
Feb 10, 2016 04:01 Feb 10, 2016 00:31
Sunrise-Sunset Local UTC
Begin Civil Twilight 06:08 02:38
Sunrise 06:32 03:02
Sunset 05:40 14:10
End Civil Twilight 06:05 14:35
VFR
VFR
MVFR
MVFR
IFR
IFR
LIFR
LIFR
Unknown
Unavailable

Current Weather

METAR Observed VFR
OISL 100000Z 30006KT CAVOK 05/M03 Q1016 Wed, Feb 10, 2016 @ 00:00 UTC
(31 Minutes ago)
Visual Flight Rules
Wind Visibility Conditions
300° at 6 knots (11 kph) 10 km or more
  • No significant weather
Temperatures Readings Precipitation
Current Temp
5°C
41°F
Dewpoint
-3°C
27°F
Humidity 57%
Altimeter 30" Hg
Sea Level Pressure 1,016 mb
Field Elevation
805 m
2,641 ft
None Recorded

Forecast Weather

TAF
TAF OISL 092305Z 1000/1106 28004MPS CAVOK
From To
Wed, Feb 10, 2016 @ 00:00 UTC Thu, Feb 11, 2016 @ 06:00 UTC
Wind Visibility Conditions
280° at 8 knots (15 kph) 10 km or more
  • No significant weather
-
-

CheckWX.com is intended as a tool to help pilots better visualize weather data. It is not intended as a substitute for an official weather briefing obtained from a Flight Service Station. CheckWX.com does not meet the FAA requirements for an official pre-flight weather briefing. Therefore, it's important that pilots still call and obtain an official FSS pre-flight weather briefing.

© 2007-2016 CheckWX.com
00:31:59 UTC